Time;durP1;ratioP1;P1;durP2;ratioP2;P2;SDS_P1;SDS_P2;PMS_P1;PMS_P2;Temp;Humidity;BMP_temperature;BMP_pressure;BME280_temperature;BME280_humidity;BME280_pressure;Samples;Min_cycle;Max_cycle;Signal;HPM_P1;HPM_P2
2021/12/19 00:00:34;;;;;;;;;;;;;;;19.94;45.48;100887.78;2084586;28;19923;-46
2021/12/19 00:08:27;;;;;;;;;;;;;;;19.92;45.68;100881.59;2085714;28;19923;-44
2021/12/19 00:08:50;;;;;;;;;;;;;;;19.88;45.60;100875.50;2075518;28;19999;-44
2021/12/19 00:09:50;;;;;;;;;;;;;;;19.87;45.67;100873.78;2082628;28;20645;-47
2021/12/19 00:10:51;;;;;;;;;;;;;;;19.88;45.82;100875.50;2082713;28;19971;-46
2021/12/19 00:11:51;;;;;;;;;;;;;;;19.89;45.82;100881.84;2081932;28;19928;-44
2021/12/19 00:12:53;;;;;;;;;;;;;;;19.88;45.73;100874.66;2085249;28;19920;-45
2021/12/19 00:13:53;;;;;;;;;;;;;;;19.88;45.74;100880.13;2085041;28;19963;-44
2021/12/19 00:14:54;;;;;;;;;;;;;;;19.87;45.69;100872.94;2083209;28;20399;-44
2021/12/19 00:15:55;;;;;;;;;;;;;;;19.87;45.73;100878.41;2085482;28;19917;-45
2021/12/19 00:16:55;;;;;;;;;;;;;;;19.87;45.83;100867.47;2076158;28;19948;-44
2021/12/19 00:17:56;;;;;;;;;;;;;;;19.85;45.78;100875.78;2082293;28;20151;-44
2021/12/19 00:18:56;;;;;;;;;;;;;;;19.85;45.81;100869.47;2080476;28;19924;-44
2021/12/19 00:19:57;;;;;;;;;;;;;;;19.85;45.86;100875.78;2078726;28;20797;-44
2021/12/19 00:20:57;;;;;;;;;;;;;;;19.85;45.81;100874.94;2077846;28;19916;-45
2021/12/19 00:21:58;;;;;;;;;;;;;;;19.84;45.85;100867.72;2075493;28;19967;-45
2021/12/19 00:22:58;;;;;;;;;;;;;;;19.84;45.92;100868.59;2077314;28;20575;-44
2021/12/19 00:23:58;;;;;;;;;;;;;;;19.82;45.84;100867.88;2077014;28;20275;-46
2021/12/19 00:24:59;;;;;;;;;;;;;;;19.83;45.85;100866.00;2076897;28;19974;-44
2021/12/19 00:25:59;;;;;;;;;;;;;;;19.82;45.92;100869.72;2077698;28;20268;-44
2021/12/19 00:26:59;;;;;;;;;;;;;;;19.83;45.93;100860.53;2077658;28;19917;-45
2021/12/19 00:27:59;;;;;;;;;;;;;;;19.82;45.89;100872.44;2084035;28;19917;-45
2021/12/19 00:29:00;;;;;;;;;;;;;;;19.82;45.89;100869.72;2086327;28;19980;-44
2021/12/19 00:30:00;;;;;;;;;;;;;;;19.83;45.94;100868.72;2082819;28;19953;-44
2021/12/19 00:31:02;;;;;;;;;;;;;;;19.81;46.02;100868.84;2081475;28;19925;-44
2021/12/19 00:32:02;;;;;;;;;;;;;;;19.82;46.04;100869.72;2077843;28;20601;-45
2021/12/19 00:33:02;;;;;;;;;;;;;;;19.80;46.00;100863.53;2079078;28;20283;-44
2021/12/19 00:34:03;;;;;;;;;;;;;;;19.81;46.04;100868.84;2080795;28;20578;-44
2021/12/19 00:35:05;;;;;;;;;;;;;;;19.80;46.04;100860.81;2074726;28;19916;-44
2021/12/19 00:36:06;;;;;;;;;;;;;;;19.79;46.01;100861.78;2083302;28;20361;-45
2021/12/19 00:37:06;;;;;;;;;;;;;;;19.79;46.08;100864.53;2082216;28;20436;-44
2021/12/19 00:38:06;;;;;;;;;;;;;;;19.78;46.11;100863.66;2084149;28;19919;-44
2021/12/19 00:39:07;;;;;;;;;;;;;;;19.78;46.03;100857.34;2077405;28;20026;-44
2021/12/19 00:40:08;;;;;;;;;;;;;;;19.78;45.99;100857.34;2084224;28;20501;-44
2021/12/19 00:41:08;;;;;;;;;;;;;;;19.78;46.01;100857.34;2082802;28;19943;-44
2021/12/19 00:42:09;;;;;;;;;;;;;;;19.77;46.08;100853.72;2087748;28;19980;-44
2021/12/19 00:43:22;;;;;;;;;;;;;;;19.76;46.12;100851.13;2083292;28;19916;-45
2021/12/19 00:44:24;;;;;;;;;;;;;;;19.76;46.20;100849.25;2081477;28;19916;-47
2021/12/19 00:45:29;;;;;;;;;;;;;;;19.76;46.08;100853.84;2079022;28;20052;-44
2021/12/19 00:46:29;;;;;;;;;;;;;;;19.75;46.12;100846.66;2083888;28;20546;-45
2021/12/19 00:47:29;;;;;;;;;;;;;;;19.73;46.20;100849.53;2081711;28;19916;-45
2021/12/19 00:48:30;;;;;;;;;;;;;;;19.72;46.19;100846.91;2076546;28;19923;-44
2021/12/19 00:49:31;;;;;;;;;;;;;;;19.73;46.10;100845.94;2083061;28;20333;-44
2021/12/19 00:50:31;;;;;;;;;;;;;;;19.73;46.17;100851.41;2090341;28;20261;-45
2021/12/19 00:51:32;;;;;;;;;;;;;;;19.71;46.20;100848.78;2079377;28;20202;-44
2021/12/19 00:52:32;;;;;;;;;;;;;;;19.72;46.24;100846.91;2079197;28;20007;-45
2021/12/19 00:53:33;;;;;;;;;;;;;;;19.70;46.21;100850.66;2076870;28;19935;-44
2021/12/19 00:54:33;;;;;;;;;;;;;;;19.70;46.30;100844.34;2078486;28;19917;-44
2021/12/19 00:55:34;;;;;;;;;;;;;;;19.69;46.21;100848.06;2084660;28;19916;-44
2021/12/19 00:56:35;;;;;;;;;;;;;;;19.69;46.25;100843.44;2076908;28;19913;-44
2021/12/19 00:57:36;;;;;;;;;;;;;;;19.68;46.35;100851.81;2079978;28;20406;-44
2021/12/19 00:58:36;;;;;;;;;;;;;;;19.69;46.36;100837.13;2084541;28;19951;-45
2021/12/19 00:59:36;;;;;;;;;;;;;;;19.67;46.31;100841.81;2082855;28;19927;-45
2021/12/19 01:00:37;;;;;;;;;;;;;;;19.66;46.35;100838.22;2085673;28;19924;-45
2021/12/19 01:01:37;;;;;;;;;;;;;;;19.65;46.26;100835.63;2084687;28;20395;-44
2021/12/19 01:02:38;;;;;;;;;;;;;;;19.65;46.41;100844.72;2080600;28;19938;-44
2021/12/19 01:03:43;;;;;;;;;;;;;;;19.63;46.42;100841.22;2082547;28;19921;-44
2021/12/19 01:04:43;;;;;;;;;;;;;;;19.64;46.36;100837.47;2085249;28;19923;-44
2021/12/19 01:05:44;;;;;;;;;;;;;;;19.64;46.33;100839.34;2084454;28;19919;-44
2021/12/19 01:06:45;;;;;;;;;;;;;;;19.63;46.40;100843.97;2082714;28;19917;-44
2021/12/19 01:07:46;;;;;;;;;;;;;;;19.64;46.46;100834.75;2082228;28;19982;-45
2021/12/19 01:08:46;;;;;;;;;;;;;;;19.63;46.46;100837.63;2080140;28;20361;-44
2021/12/19 01:09:47;;;;;;;;;;;;;;;19.62;46.46;100842.25;2087543;28;19923;-45
2021/12/19 01:10:48;;;;;;;;;;;;;;;19.60;46.43;100838.78;2079509;28;19915;-44
2021/12/19 01:11:49;;;;;;;;;;;;;;;19.60;46.45;100838.78;2084664;28;20311;-44
2021/12/19 01:12:49;;;;;;;;;;;;;;;19.59;46.44;100837.03;2083638;28;20031;-45
2021/12/19 01:13:50;;;;;;;;;;;;;;;19.59;46.61;100836.16;2080576;28;19913;-44
2021/12/19 01:14:50;;;;;;;;;;;;;;;19.57;46.61;100828.09;2082721;28;20322;-43
2021/12/19 01:15:52;;;;;;;;;;;;;;;19.58;46.65;100829.84;2083832;28;19916;-44
2021/12/19 01:16:53;;;;;;;;;;;;;;;19.58;46.72;100828.97;2082727;28;20270;-45
2021/12/19 01:17:53;;;;;;;;;;;;;;;19.57;46.60;100828.09;2086115;28;19912;-44
2021/12/19 01:18:53;;;;;;;;;;;;;;;19.55;46.61;100835.59;2083859;28;20509;-44
2021/12/19 01:19:54;;;;;;;;;;;;;;;19.55;46.64;100829.22;2081659;28;19920;-43
2021/12/19 01:20:54;;;;;;;;;;;;;;;19.55;46.62;100823.75;2085013;28;19916;-45
2021/12/19 01:21:54;;;;;;;;;;;;;;;19.54;46.64;100825.63;2081739;28;19967;-44
2021/12/19 01:22:55;;;;;;;;;;;;;;;19.54;46.65;100833.84;2084237;28;20634;-44
2021/12/19 01:23:56;;;;;;;;;;;;;;;19.53;46.72;100821.19;2082648;28;20133;-44
2021/12/19 01:24:56;;;;;;;;;;;;;;;19.53;46.73;100826.66;2084668;28;20562;-44
2021/12/19 01:25:56;;;;;;;;;;;;;;;19.52;46.73;100824.91;2078335;28;20336;-45
2021/12/19 01:26:56;;;;;;;;;;;;;;;19.52;46.74;100827.63;2084014;28;20340;-45
2021/12/19 01:27:57;;;;;;;;;;;;;;;19.51;46.80;100831.38;2080016;28;19923;-45
2021/12/19 01:28:58;;;;;;;;;;;;;;;19.50;46.67;100824.19;2080265;28;20341;-45
2021/12/19 01:29:58;;;;;;;;;;;;;;;19.50;46.85;100829.66;2079535;28;19916;-45
2021/12/19 01:30:58;;;;;;;;;;;;;;;19.50;46.82;100832.38;2084293;28;19971;-44
2021/12/19 01:32:00;;;;;;;;;;;;;;;19.48;46.98;100828.91;2093424;28;19927;-44
2021/12/19 01:33:01;;;;;;;;;;;;;;;19.49;46.92;100830.63;2085800;28;19920;-44
2021/12/19 01:34:01;;;;;;;;;;;;;;;19.49;46.88;100830.63;2087206;28;19917;-44
2021/12/19 01:35:02;;;;;;;;;;;;;;;19.47;46.88;100827.16;2085834;28;20227;-44
2021/12/19 01:36:03;;;;;;;;;;;;;;;19.47;46.91;100838.09;2084172;28;19920;-44
2021/12/19 01:37:03;;;;;;;;;;;;;;;19.46;46.92;100831.78;2086587;28;19961;-44
2021/12/19 01:38:04;;;;;;;;;;;;;;;19.45;46.95;100829.16;2084626;28;19912;-44
2021/12/19 01:39:04;;;;;;;;;;;;;;;19.45;46.89;100835.53;2090003;28;19916;-44
2021/12/19 01:40:06;;;;;;;;;;;;;;;19.45;46.99;100829.16;2083527;28;19959;-44
2021/12/19 01:41:06;;;;;;;;;;;;;;;19.44;46.89;100833.78;2081972;28;20044;-44
2021/12/19 01:42:09;;;;;;;;;;;;;;;19.44;46.98;100827.44;2081725;28;20301;-44
2021/12/19 01:43:09;;;;;;;;;;;;;;;19.43;46.94;100834.78;2084255;28;19927;-45
2021/12/19 01:44:09;;;;;;;;;;;;;;;19.42;47.04;100824.84;2082654;28;20639;-45
2021/12/19 01:45:11;;;;;;;;;;;;;;;19.42;46.97;100829.44;2079760;28;20051;-44
2021/12/19 01:46:12;;;;;;;;;;;;;;;19.43;47.03;100825.72;2084549;28;19955;-44
2021/12/19 01:47:13;;;;;;;;;;;;;;;19.42;47.00;100826.72;2086087;28;20037;-46
2021/12/19 01:48:13;;;;;;;;;;;;;;;19.42;47.00;100823.97;2084172;28;19946;-44
2021/12/19 01:49:15;;;;;;;;;;;;;;;19.41;47.07;100819.53;2093133;28;19952;-45
2021/12/19 01:50:15;;;;;;;;;;;;;;;19.40;47.09;100820.50;2087038;28;20285;-45
2021/12/19 01:51:16;;;;;;;;;;;;;;;19.40;47.09;100820.50;2083158;28;19920;-41
2021/12/19 01:52:16;;;;;;;;;;;;;;;19.40;47.03;100817.78;2085769;28;20023;-41
2021/12/19 01:53:17;;;;;;;;;;;;;;;19.39;47.14;100813.31;2084812;28;19962;-41
2021/12/19 01:54:18;;;;;;;;;;;;;;;19.38;47.10;100817.94;2087549;28;20080;-41
2021/12/19 01:55:18;;;;;;;;;;;;;;;19.38;47.14;100817.94;2084021;28;19915;-43
2021/12/19 01:56:19;;;;;;;;;;;;;;;19.37;47.07;100820.78;2080890;28;20226;-41
2021/12/19 01:57:22;;;;;;;;;;;;;;;19.38;47.17;100817.06;2081061;28;19915;-42
2021/12/19 01:58:22;;;;;;;;;;;;;;;19.37;47.15;100815.31;2084165;28;19916;-41
2021/12/19 01:59:22;;;;;;;;;;;;;;;19.37;47.22;100815.31;2084529;28;20203;-42
2021/12/19 02:00:27;;;;;;;;;;;;;;;19.37;47.09;100818.03;2086289;28;19917;-41
2021/12/19 02:01:28;;;;;;;;;;;;;;;19.36;47.14;100814.44;2082544;28;20015;-42
2021/12/19 02:02:28;;;;;;;;;;;;;;;19.35;47.16;100814.56;2087317;28;19908;-41
2021/12/19 02:03:30;;;;;;;;;;;;;;;19.35;47.16;100817.31;2085235;28;19919;-41
2021/12/19 02:04:32;;;;;;;;;;;;;;;19.35;47.18;100823.63;2083706;28;19995;-41
2021/12/19 02:05:33;;;;;;;;;;;;;;;19.34;47.18;100821.91;2087237;28;19924;-41
2021/12/19 02:06:33;;;;;;;;;;;;;;;19.33;47.26;100825.66;2084143;28;20533;-40
2021/12/19 02:07:34;;;;;;;;;;;;;;;19.34;47.26;100821.06;2084820;28;19950;-41
2021/12/19 02:08:34;;;;;;;;;;;;;;;19.34;47.35;100832.00;2077763;28;20612;-41
2021/12/19 02:09:35;;;;;;;;;;;;;;;19.34;47.24;100821.91;2081512;28;19916;-41
2021/12/19 02:10:36;;;;;;;;;;;;;;;19.32;47.30;100818.44;2079510;28;19916;-41
2021/12/19 02:11:37;;;;;;;;;;;;;;;19.32;47.29;100823.91;2081266;28;19924;-41
2021/12/19 02:12:38;;;;;;;;;;;;;;;19.32;47.31;100823.06;2080021;28;19917;-41
2021/12/19 02:13:39;;;;;;;;;;;;;;;19.32;47.22;100817.59;2084774;28;19917;-41
2021/12/19 02:14:39;;;;;;;;;;;;;;;19.30;47.21;100816.84;2083952;28;19916;-41
2021/12/19 02:15:40;;;;;;;;;;;;;;;19.28;47.23;100812.41;2086053;28;19959;-42
2021/12/19 02:16:40;;;;;;;;;;;;;;;19.28;47.30;100812.41;2081517;28;19917;-41
2021/12/19 02:17:41;;;;;;;;;;;;;;;19.28;47.30;100822.47;2082034;28;19966;-42
2021/12/19 02:18:41;;;;;;;;;;;;;;;19.28;47.32;100817.00;2078600;28;19917;-42
2021/12/19 02:19:41;;;;;;;;;;;;;;;19.28;47.35;100817.88;2083263;28;20384;-41
2021/12/19 02:20:43;;;;;;;;;;;;;;;19.26;47.38;100817.13;2080615;28;19994;-42
2021/12/19 02:21:44;;;;;;;;;;;;;;;19.26;47.36;100814.38;2084447;28;19916;-41
2021/12/19 02:22:45;;;;;;;;;;;;;;;19.26;47.41;100819.84;2088072;28;19924;-41
2021/12/19 02:23:45;;;;;;;;;;;;;;;19.26;47.30;100814.38;2087303;28;19999;-43
2021/12/19 02:24:45;;;;;;;;;;;;;;;19.25;47.44;100812.63;2085234;28;19923;-41
2021/12/19 02:25:46;;;;;;;;;;;;;;;19.25;47.33;100817.25;2083754;28;20331;-42
2021/12/19 02:26:47;;;;;;;;;;;;;;;19.24;47.43;100815.53;2082691;28;19915;-41
2021/12/19 02:27:47;;;;;;;;;;;;;;;19.24;47.45;100816.38;2082410;28;19920;-41
2021/12/19 02:28:48;;;;;;;;;;;;;;;19.24;47.37;100815.53;2080790;28;19915;-41
2021/12/19 02:29:48;;;;;;;;;;;;;;;19.24;47.33;100821.84;2086190;28;20076;-43
2021/12/19 02:30:49;;;;;;;;;;;;;;;19.23;47.41;100825.59;2081876;28;19924;-41
2021/12/19 02:31:50;;;;;;;;;;;;;;;19.22;47.34;100812.91;2082020;28;20536;-41
2021/12/19 02:32:50;;;;;;;;;;;;;;;19.22;47.45;100818.38;2084200;28;20260;-41
2021/12/19 02:34:40;;;;;;;;;;;;;;;19.21;47.52;100811.19;2078829;28;19909;-41
2021/12/19 02:35:20;;;;;;;;;;;;;;;19.21;47.42;100822.13;2083515;28;19988;-42
2021/12/19 02:36:29;;;;;;;;;;;;;;;19.21;47.52;100822.13;2082450;28;19921;-42
2021/12/19 02:38:15;;;;;;;;;;;;;;;19.21;47.50;100811.19;2082937;28;20010;-42
2021/12/19 02:48:19;;;;;;;;;;;;;;;19.14;47.45;100815.47;2079419;28;19917;-41
2021/12/19 02:49:20;;;;;;;;;;;;;;;19.15;47.63;100821.78;2077881;28;19908;-41
2021/12/19 02:50:23;;;;;;;;;;;;;;;19.14;47.63;100820.91;2076143;28;20013;-41
2021/12/19 02:51:24;;;;;;;;;;;;;;;19.14;47.66;100820.91;2081639;28;20362;-41
2021/12/19 02:52:25;;;;;;;;;;;;;;;19.15;47.62;100819.91;2084100;28;19924;-41
2021/12/19 02:53:33;;;;;;;;;;;;;;;19.13;47.69;100813.69;2085572;28;19938;-41
2021/12/19 02:54:35;;;;;;;;;;;;;;;19.13;47.73;100823.78;2083063;28;20390;-42
2021/12/19 02:55:36;;;;;;;;;;;;;;;19.12;47.71;100822.06;2076226;28;20331;-42
2021/12/19 02:56:36;;;;;;;;;;;;;;;19.12;47.65;100817.44;2079124;28;19913;-41
2021/12/19 02:57:38;;;;;;;;;;;;;;;19.11;47.70;100820.31;2079521;28;20747;-42
2021/12/19 02:58:40;;;;;;;;;;;;;;;19.10;47.76;100824.91;2085231;28;20435;-41
2021/12/19 02:59:40;;;;;;;;;;;;;;;19.10;47.76;100816.72;2083328;28;19916;-42
2021/12/19 03:00:40;;;;;;;;;;;;;;;19.08;47.77;100815.97;2083415;28;19916;-42
2021/12/19 03:01:43;;;;;;;;;;;;;;;19.09;47.76;100823.19;2084249;28;19942;-41
2021/12/19 03:02:43;;;;;;;;;;;;;;;19.09;47.79;100823.19;2078014;28;20000;-41
2021/12/19 03:03:44;;;;;;;;;;;;;;;19.08;47.78;100826.03;2077176;28;19917;-41
2021/12/19 03:04:55;;;;;;;;;;;;;;;19.07;47.80;100827.91;2084360;28;19937;-41
2021/12/19 03:05:56;;;;;;;;;;;;;;;19.08;47.79;100820.56;2085510;28;19917;-41
2021/12/19 03:06:56;;;;;;;;;;;;;;;19.07;47.82;100825.19;2084800;28;20129;-41
2021/12/19 03:07:56;;;;;;;;;;;;;;;19.06;47.82;100828.94;2085201;28;19988;-40
2021/12/19 03:09:03;;;;;;;;;;;;;;;19.06;47.79;100828.94;2080020;28;19924;-41
2021/12/19 03:10:39;;;;;;;;;;;;;;;19.05;47.83;100822.56;2086657;28;19920;-41
2021/12/19 03:18:52;;;;;;;;;;;;;;;19.02;47.98;100827.44;2079509;28;19916;-41
2021/12/19 03:19:53;;;;;;;;;;;;;;;19.01;47.88;100825.69;2078402;28;20212;-41
2021/12/19 03:20:53;;;;;;;;;;;;;;;19.01;47.93;100820.22;2083789;28;19924;-41
2021/12/19 03:21:53;;;;;;;;;;;;;;;19.00;47.92;100821.25;2084711;28;19924;-43
2021/12/19 03:22:54;;;;;;;;;;;;;;;19.00;47.97;100821.25;2081149;28;19917;-42
2021/12/19 03:23:54;;;;;;;;;;;;;;;18.99;47.97;100822.25;2081480;28;20667;-40
2021/12/19 03:24:55;;;;;;;;;;;;;;;18.99;47.94;100822.25;2082162;28;19977;-41
2021/12/19 03:25:55;;;;;;;;;;;;;;;18.99;47.97;100814.06;2082474;28;20328;-43
2021/12/19 03:26:56;;;;;;;;;;;;;;;18.99;48.03;100819.53;2086004;28;20420;-41
2021/12/19 03:27:56;;;;;;;;;;;;;;;18.98;48.12;100820.50;2083642;28;20696;-41
2021/12/19 03:28:57;;;;;;;;;;;;;;;18.97;47.93;100819.63;2080033;28;19921;-42
2021/12/19 03:29:57;;;;;;;;;;;;;;;18.97;47.99;100818.78;2082664;28;20306;-41
2021/12/19 03:30:57;;;;;;;;;;;;;;;18.96;48.06;100817.03;2079600;28;19987;-41
2021/12/19 03:31:57;;;;;;;;;;;;;;;18.96;48.03;100817.91;2079696;28;19928;-43
2021/12/19 03:32:58;;;;;;;;;;;;;;;18.96;47.98;100817.03;2085102;28;20262;-41
2021/12/19 03:33:59;;;;;;;;;;;;;;;18.95;48.13;100818.91;2075567;28;19916;-41
2021/12/19 03:35:00;;;;;;;;;;;;;;;18.95;48.13;100823.50;2081721;28;19956;-42
2021/12/19 03:36:00;;;;;;;;;;;;;;;18.94;48.00;100816.31;2080766;28;19927;-42
2021/12/19 03:37:00;;;;;;;;;;;;;;;18.94;48.06;100819.06;2078602;28;19952;-42
2021/12/19 03:38:03;;;;;;;;;;;;;;;18.94;48.13;100821.78;2082893;28;19956;-41
2021/12/19 03:39:13;;;;;;;;;;;;;;;18.93;48.07;100815.44;2081955;28;20023;-42
2021/12/19 03:40:22;;;;;;;;;;;;;;;18.93;48.00;100814.56;2084466;28;19969;-41
2021/12/19 03:41:23;;;;;;;;;;;;;;;18.93;48.05;100811.84;2080620;28;19917;-42
2021/12/19 03:42:25;;;;;;;;;;;;;;;18.92;48.16;100810.13;2080081;28;19927;-41
2021/12/19 03:43:25;;;;;;;;;;;;;;;18.91;48.03;100803.75;2077980;28;20015;-41
2021/12/19 03:44:25;;;;;;;;;;;;;;;18.90;48.18;100810.22;2082681;28;19916;-42
2021/12/19 03:45:26;;;;;;;;;;;;;;;18.89;48.09;100805.78;2083650;28;19960;-41
2021/12/19 03:46:26;;;;;;;;;;;;;;;18.90;48.11;100814.84;2083162;28;19923;-41
2021/12/19 03:47:27;;;;;;;;;;;;;;;18.89;48.21;100813.97;2084886;28;20381;-41
2021/12/19 03:48:27;;;;;;;;;;;;;;;18.89;48.09;100804.88;2078920;28;20109;-41
2021/12/19 03:49:27;;;;;;;;;;;;;;;18.89;48.12;100804.88;2082656;28;20498;-42
2021/12/19 03:50:28;;;;;;;;;;;;;;;18.88;48.08;100811.38;2082721;28;19923;-41
2021/12/19 03:51:28;;;;;;;;;;;;;;;18.88;48.23;100803.16;2084608;28;20026;-41
2021/12/19 03:52:29;;;;;;;;;;;;;;;18.87;48.23;100809.66;2084852;28;19975;-41
2021/12/19 03:53:29;;;;;;;;;;;;;;;18.85;48.12;100807.88;2083624;28;19952;-41
2021/12/19 03:54:29;;;;;;;;;;;;;;;18.86;48.25;100800.56;2082075;28;19928;-41
2021/12/19 03:55:30;;;;;;;;;;;;;;;18.87;48.29;100801.44;2084578;28;20063;-41
2021/12/19 03:56:30;;;;;;;;;;;;;;;18.84;48.19;100800.72;2081639;28;19913;-41
2021/12/19 03:57:30;;;;;;;;;;;;;;;18.84;48.29;100795.25;2083283;28;20201;-41
2021/12/19 03:58:31;;;;;;;;;;;;;;;18.83;48.17;100796.22;2079094;28;19924;-41
2021/12/19 03:59:31;;;;;;;;;;;;;;;18.82;48.31;100789.03;2080791;28;20011;-41
2021/12/19 04:00:32;;;;;;;;;;;;;;;18.82;48.25;100794.50;2079252;28;19916;-41
2021/12/19 04:01:32;;;;;;;;;;;;;;;18.82;48.29;100783.56;2082795;28;20376;-41
2021/12/19 04:02:33;;;;;;;;;;;;;;;18.83;48.32;100792.63;2079083;28;20171;-41
2021/12/19 04:03:33;;;;;;;;;;;;;;;18.81;48.29;100787.31;2077955;28;19912;-41
2021/12/19 04:04:37;;;;;;;;;;;;;;;18.81;48.24;100787.31;2084735;28;19913;-42
2021/12/19 04:05:42;;;;;;;;;;;;;;;18.79;48.29;100783.84;2082252;28;20796;-41
2021/12/19 04:06:42;;;;;;;;;;;;;;;18.81;48.22;100786.44;2084247;28;20460;-41
2021/12/19 04:07:43;;;;;;;;;;;;;;;18.80;48.27;100782.84;2078215;28;19916;-41
2021/12/19 04:08:43;;;;;;;;;;;;;;;18.79;48.31;100781.13;2079648;28;19970;-41
2021/12/19 04:09:44;;;;;;;;;;;;;;;18.79;48.29;100786.59;2076432;28;19917;-41
2021/12/19 04:10:46;;;;;;;;;;;;;;;18.78;48.22;100770.31;2082907;28;20033;-41
2021/12/19 04:11:49;;;;;;;;;;;;;;;18.78;48.24;100775.78;2078426;28;20039;-41
2021/12/19 04:12:50;;;;;;;;;;;;;;;18.77;48.39;100774.91;2081285;28;19935;-41
2021/12/19 04:13:51;;;;;;;;;;;;;;;18.76;48.21;100773.16;2081527;28;20285;-41
2021/12/19 04:14:51;;;;;;;;;;;;;;;18.76;48.34;100767.69;2084203;28;20414;-41
2021/12/19 04:15:51;;;;;;;;;;;;;;;18.75;48.35;100774.13;2082768;28;19917;-41
2021/12/19 04:16:52;;;;;;;;;;;;;;;18.76;48.28;100778.63;2080589;28;19917;-42
2021/12/19 04:17:52;;;;;;;;;;;;;;;18.74;48.30;100775.16;2081253;28;19920;-41
2021/12/19 04:18:52;;;;;;;;;;;;;;;18.74;48.28;100766.97;2081038;28;20423;-41
2021/12/19 04:19:53;;;;;;;;;;;;;;;18.74;48.32;100769.69;2079826;28;20402;-41
2021/12/19 04:20:53;;;;;;;;;;;;;;;18.74;48.37;100771.53;2078763;28;19920;-41
2021/12/19 04:21:53;;;;;;;;;;;;;;;18.73;48.34;100765.22;2081552;28;19917;-44
2021/12/19 04:22:54;;;;;;;;;;;;;;;18.73;48.29;100765.22;2088157;28;20330;-41
2021/12/19 04:23:54;;;;;;;;;;;;;;;18.72;48.37;100766.22;2084253;28;19916;-41
2021/12/19 04:24:54;;;;;;;;;;;;;;;18.72;48.41;100759.91;2083389;28;20225;-42
2021/12/19 04:25:55;;;;;;;;;;;;;;;18.72;48.48;100759.91;2077693;28;19917;-41
2021/12/19 04:26:56;;;;;;;;;;;;;;;18.72;48.41;100765.34;2081830;28;19968;-41
2021/12/19 04:27:56;;;;;;;;;;;;;;;18.70;48.31;100760.00;2078780;28;19939;-41
2021/12/19 04:28:56;;;;;;;;;;;;;;;18.71;48.30;100759.00;2084553;28;19970;-40
2021/12/19 04:29:57;;;;;;;;;;;;;;;18.70;48.32;100761.88;2078847;28;20394;-41
2021/12/19 04:30:59;;;;;;;;;;;;;;;18.69;48.34;100755.56;2083005;28;20252;-41
2021/12/19 04:31:59;;;;;;;;;;;;;;;18.69;48.27;100761.03;2082308;28;20605;-41
2021/12/19 04:33:07;;;;;;;;;;;;;;;18.69;48.27;100757.41;2078902;28;19916;-42
2021/12/19 04:34:07;;;;;;;;;;;;;;;18.68;48.25;100753.81;2086684;28;19923;-41
2021/12/19 04:35:11;;;;;;;;;;;;;;;18.68;48.20;100751.09;2080196;28;20354;-41
2021/12/19 04:36:17;;;;;;;;;;;;;;;18.67;48.33;100752.09;2087425;28;19947;-41
2021/12/19 04:39:53;;;;;;;;;;;;;;;18.67;48.26;100753.94;2078741;28;20343;-41
2021/12/19 04:41:47;;;;;;;;;;;;;;;18.66;48.39;100755.81;2078126;28;19924;-41
2021/12/19 04:52:27;;;;;;;;;;;;;;;18.61;48.56;100747.13;2078575;28;19921;-41
2021/12/19 04:53:33;;;;;;;;;;;;;;;18.60;48.30;100746.28;2083503;28;19921;-41
2021/12/19 04:57:10;;;;;;;;;;;;;;;18.59;48.48;100744.56;2084186;28;19909;-42
2021/12/19 04:58:23;;;;;;;;;;;;;;;18.60;48.43;100745.41;2079629;28;19931;-41
2021/12/19 05:00:44;;;;;;;;;;;;;;;18.59;48.49;100749.13;2076275;28;19917;-40
2021/12/19 05:02:59;;;;;;;;;;;;;;;18.58;48.38;100739.22;2083467;28;20095;-41
2021/12/19 05:14:23;;;;;;;;;;;;;;;18.55;48.40;100743.09;2082381;28;19917;-42
2021/12/19 05:15:27;;;;;;;;;;;;;;;18.53;48.47;100739.59;2087207;28;19970;-41
2021/12/19 05:16:27;;;;;;;;;;;;;;;18.53;48.56;100728.69;2078168;28;20264;-41
2021/12/19 05:17:29;;;;;;;;;;;;;;;18.54;48.36;100732.28;2080379;28;20166;-41
2021/12/19 05:18:34;;;;;;;;;;;;;;;18.53;48.57;100733.28;2085313;28;20049;-42
2021/12/19 05:20:07;;;;;;;;;;;;;;;18.53;48.63;100727.81;2078038;28;19952;-41
2021/12/19 05:21:05;;;;;;;;;;;;;;;18.53;48.47;100738.75;2080987;28;20003;-42
2021/12/19 05:22:06;;;;;;;;;;;;;;;18.52;48.33;100728.81;2081717;28;19982;-41
2021/12/19 05:23:20;;;;;;;;;;;;;;;18.52;48.60;100728.81;2092827;28;19951;-41
2021/12/19 05:25:39;;;;;;;;;;;;;;;18.50;48.54;100720.78;2082081;28;19999;-41
2021/12/19 05:26:43;;;;;;;;;;;;;;;18.50;48.47;100718.03;2084621;28;19916;-42
2021/12/19 05:27:45;;;;;;;;;;;;;;;18.49;48.58;100726.34;2086428;28;19917;-43
2021/12/19 05:28:48;;;;;;;;;;;;;;;18.49;48.64;100716.28;2084703;28;19931;-42
2021/12/19 05:29:48;;;;;;;;;;;;;;;18.48;48.68;100719.16;2083367;28;20012;-41
2021/12/19 05:30:49;;;;;;;;;;;;;;;18.48;48.54;100727.34;2081825;28;20009;-41
2021/12/19 05:31:49;;;;;;;;;;;;;;;18.48;48.54;100721.91;2085256;28;19967;-41
2021/12/19 05:32:50;;;;;;;;;;;;;;;18.48;48.59;100719.16;2072737;28;19905;-41
2021/12/19 05:33:51;;;;;;;;;;;;;;;18.47;48.61;100722.88;2082030;28;19908;-42
2021/12/19 05:34:51;;;;;;;;;;;;;;;18.47;48.58;100722.88;2080155;28;19916;-41
2021/12/19 05:46:10;;;;;;;;;;;;;;;18.43;48.50;100722.28;2079491;28;20334;-41
2021/12/19 05:47:11;;;;;;;;;;;;;;;18.42;48.72;100720.53;2083198;28;20050;-40
2021/12/19 05:48:11;;;;;;;;;;;;;;;18.41;48.73;100713.34;2084012;28;19920;-41
2021/12/19 05:49:11;;;;;;;;;;;;;;;18.41;48.67;100716.94;2085905;28;20035;-41
2021/12/19 05:50:12;;;;;;;;;;;;;;;18.41;48.54;100719.69;2088162;28;19948;-41
2021/12/19 05:51:13;;;;;;;;;;;;;;;18.40;48.68;100717.97;2088087;28;20006;-41
2021/12/19 05:52:14;;;;;;;;;;;;;;;18.40;48.60;100717.97;2082952;28;19924;-41
2021/12/19 05:53:15;;;;;;;;;;;;;;;18.40;48.68;100717.09;2077823;28;20242;-41
2021/12/19 05:54:15;;;;;;;;;;;;;;;18.39;48.81;100718.94;2084691;28;19921;-41
2021/12/19 05:55:16;;;;;;;;;;;;;;;18.39;48.60;100715.34;2086283;28;19939;-41
2021/12/19 05:56:17;;;;;;;;;;;;;;;18.39;48.69;100721.66;2084246;28;20505;-40
2021/12/19 05:57:17;;;;;;;;;;;;;;;18.38;48.83;100714.47;2086214;28;20326;-41
2021/12/19 05:58:17;;;;;;;;;;;;;;;18.39;48.77;100715.34;2084766;28;20281;-41
2021/12/19 05:59:18;;;;;;;;;;;;;;;18.38;48.78;100713.63;2084213;28;19972;-41
2021/12/19 06:00:19;;;;;;;;;;;;;;;18.38;48.69;100713.63;2086268;28;19990;-40
2021/12/19 06:01:19;;;;;;;;;;;;;;;18.38;48.78;100710.91;2086617;28;20363;-41
2021/12/19 06:02:19;;;;;;;;;;;;;;;18.37;48.75;100710.03;2081665;28;19979;-41
2021/12/19 06:03:20;;;;;;;;;;;;;;;18.36;48.83;100711.00;2078167;28;20479;-41
2021/12/19 06:04:20;;;;;;;;;;;;;;;18.37;48.84;100703.69;2081645;28;19920;-41
2021/12/19 06:05:20;;;;;;;;;;;;;;;18.36;48.80;100705.56;2084453;28;19915;-41
2021/12/19 06:06:20;;;;;;;;;;;;;;;18.35;48.88;100709.28;2085449;28;19917;-40
2021/12/19 06:07:21;;;;;;;;;;;;;;;18.36;48.68;100702.81;2085136;28;19908;-41
2021/12/19 06:08:21;;;;;;;;;;;;;;;18.35;48.87;100702.97;2086089;28;20060;-41
2021/12/19 06:09:22;;;;;;;;;;;;;;;18.36;48.70;100699.25;2077439;28;19916;-41
2021/12/19 06:10:22;;;;;;;;;;;;;;;18.33;48.81;100700.38;2078621;28;19917;-41
2021/12/19 06:11:23;;;;;;;;;;;;;;;18.34;48.73;100704.81;2083705;28;20094;-41
2021/12/19 06:12:23;;;;;;;;;;;;;;;18.34;48.79;100703.94;2084489;28;20361;-41
2021/12/19 06:13:24;;;;;;;;;;;;;;;18.33;48.71;100705.81;2077465;28;19928;-41
2021/12/19 06:14:31;;;;;;;;;;;;;;;18.33;48.78;100704.97;2081805;28;20308;-40
2021/12/19 06:15:31;;;;;;;;;;;;;;;18.33;48.83;100697.63;2082765;28;19938;-41
2021/12/19 06:16:31;;;;;;;;;;;;;;;18.33;48.77;100704.97;2077215;28;19924;-41
2021/12/19 06:17:32;;;;;;;;;;;;;;;18.33;48.71;100699.50;2078484;28;19916;-41
2021/12/19 06:18:32;;;;;;;;;;;;;;;18.33;48.69;100700.38;2078303;28;20382;-41